sensor_id;sensor_type;location;lat;lon;timestamp;P1;durP1;ratioP1;P2;durP2;ratioP2
61523;SDS011;47393;38.758;-9.164;2022-08-19T00:01:19;6.00;;;3.57;;
61523;SDS011;47393;38.758;-9.164;2022-08-19T00:03:20;19.55;;;4.15;;
61523;SDS011;47393;38.758;-9.164;2022-08-19T00:05:21;13.00;;;3.80;;
61523;SDS011;47393;38.758;-9.164;2022-08-19T00:07:22;9.10;;;3.47;;
61523;SDS011;47393;38.758;-9.164;2022-08-19T00:09:23;8.88;;;3.65;;
61523;SDS011;47393;38.758;-9.164;2022-08-19T00:11:24;4.78;;;3.58;;
61523;SDS011;47393;38.758;-9.164;2022-08-19T00:13:26;10.30;;;3.67;;
61523;SDS011;47393;38.758;-9.164;2022-08-19T00:15:27;11.18;;;3.47;;
61523;SDS011;47393;38.758;-9.164;2022-08-19T00:17:28;14.35;;;4.13;;
61523;SDS011;47393;38.758;-9.164;2022-08-19T00:19:28;9.43;;;3.50;;
61523;SDS011;47393;38.758;-9.164;2022-08-19T00:21:30;11.30;;;3.78;;
61523;SDS011;47393;38.758;-9.164;2022-08-19T00:23:31;5.78;;;3.72;;
61523;SDS011;47393;38.758;-9.164;2022-08-19T00:25:32;6.65;;;3.05;;
61523;SDS011;47393;38.758;-9.164;2022-08-19T00:27:33;9.93;;;3.35;;
61523;SDS011;47393;38.758;-9.164;2022-08-19T00:29:37;6.38;;;3.60;;
61523;SDS011;47393;38.758;-9.164;2022-08-19T00:31:38;10.50;;;3.88;;
61523;SDS011;47393;38.758;-9.164;2022-08-19T00:33:39;10.18;;;3.65;;
61523;SDS011;47393;38.758;-9.164;2022-08-19T00:35:40;5.63;;;3.45;;
61523;SDS011;47393;38.758;-9.164;2022-08-19T00:37:41;12.00;;;3.70;;
61523;SDS011;47393;38.758;-9.164;2022-08-19T00:39:42;9.35;;;3.70;;
61523;SDS011;47393;38.758;-9.164;2022-08-19T00:41:43;8.43;;;4.18;;
61523;SDS011;47393;38.758;-9.164;2022-08-19T00:43:56;8.77;;;4.57;;
61523;SDS011;47393;38.758;-9.164;2022-08-19T00:46:05;7.28;;;3.95;;
61523;SDS011;47393;38.758;-9.164;2022-08-19T00:48:05;9.77;;;3.92;;
61523;SDS011;47393;38.758;-9.164;2022-08-19T00:50:06;14.40;;;4.75;;
61523;SDS011;47393;38.758;-9.164;2022-08-19T00:52:12;5.13;;;3.40;;
61523;SDS011;47393;38.758;-9.164;2022-08-19T00:54:16;3.60;;;3.30;;
61523;SDS011;47393;38.758;-9.164;2022-08-19T00:56:18;6.85;;;3.40;;
61523;SDS011;47393;38.758;-9.164;2022-08-19T00:58:20;9.48;;;3.42;;
61523;SDS011;47393;38.758;-9.164;2022-08-19T01:00:24;11.60;;;3.92;;
61523;SDS011;47393;38.758;-9.164;2022-08-19T01:02:26;10.68;;;3.92;;
61523;SDS011;47393;38.758;-9.164;2022-08-19T01:04:29;7.88;;;3.75;;
61523;SDS011;47393;38.758;-9.164;2022-08-19T01:06:30;8.15;;;3.80;;
61523;SDS011;47393;38.758;-9.164;2022-08-19T01:08:33;9.52;;;3.83;;
61523;SDS011;47393;38.758;-9.164;2022-08-19T01:10:39;12.82;;;3.65;;
61523;SDS011;47393;38.758;-9.164;2022-08-19T01:12:42;12.23;;;4.00;;
61523;SDS011;47393;38.758;-9.164;2022-08-19T01:14:44;8.77;;;4.57;;
61523;SDS011;47393;38.758;-9.164;2022-08-19T01:16:45;14.45;;;4.15;;
61523;SDS011;47393;38.758;-9.164;2022-08-19T01:18:47;3.90;;;3.53;;
61523;SDS011;47393;38.758;-9.164;2022-08-19T01:20:48;15.38;;;4.05;;
61523;SDS011;47393;38.758;-9.164;2022-08-19T01:22:53;16.80;;;4.13;;
61523;SDS011;47393;38.758;-9.164;2022-08-19T01:24:56;6.72;;;4.10;;
61523;SDS011;47393;38.758;-9.164;2022-08-19T01:26:57;9.52;;;3.70;;
61523;SDS011;47393;38.758;-9.164;2022-08-19T01:28:58;5.28;;;3.95;;
61523;SDS011;47393;38.758;-9.164;2022-08-19T01:30:59;7.15;;;3.92;;
61523;SDS011;47393;38.758;-9.164;2022-08-19T01:33:01;8.15;;;3.95;;
61523;SDS011;47393;38.758;-9.164;2022-08-19T01:35:03;8.95;;;4.00;;
61523;SDS011;47393;38.758;-9.164;2022-08-19T01:37:06;5.75;;;4.38;;
61523;SDS011;47393;38.758;-9.164;2022-08-19T01:39:10;7.85;;;4.40;;
61523;SDS011;47393;38.758;-9.164;2022-08-19T01:41:13;8.00;;;4.43;;
61523;SDS011;47393;38.758;-9.164;2022-08-19T01:43:14;8.80;;;4.57;;
61523;SDS011;47393;38.758;-9.164;2022-08-19T01:45:16;10.35;;;4.07;;
61523;SDS011;47393;38.758;-9.164;2022-08-19T01:47:19;9.23;;;4.15;;
61523;SDS011;47393;38.758;-9.164;2022-08-19T01:49:20;8.10;;;4.43;;
61523;SDS011;47393;38.758;-9.164;2022-08-19T01:51:23;9.23;;;4.55;;
61523;SDS011;47393;38.758;-9.164;2022-08-19T01:53:24;8.82;;;4.30;;
61523;SDS011;47393;38.758;-9.164;2022-08-19T01:55:25;6.32;;;4.43;;
61523;SDS011;47393;38.758;-9.164;2022-08-19T01:57:26;7.35;;;4.43;;
61523;SDS011;47393;38.758;-9.164;2022-08-19T01:59:27;14.43;;;4.53;;
61523;SDS011;47393;38.758;-9.164;2022-08-19T02:01:32;12.95;;;3.78;;
61523;SDS011;47393;38.758;-9.164;2022-08-19T02:03:36;14.77;;;4.75;;
61523;SDS011;47393;38.758;-9.164;2022-08-19T02:05:37;7.68;;;4.20;;
61523;SDS011;47393;38.758;-9.164;2022-08-19T02:07:39;7.07;;;4.40;;
61523;SDS011;47393;38.758;-9.164;2022-08-19T02:09:40;11.02;;;4.43;;
61523;SDS011;47393;38.758;-9.164;2022-08-19T02:11:42;8.40;;;4.22;;
61523;SDS011;47393;38.758;-9.164;2022-08-19T02:13:42;12.32;;;4.55;;
61523;SDS011;47393;38.758;-9.164;2022-08-19T02:15:43;9.98;;;4.70;;
61523;SDS011;47393;38.758;-9.164;2022-08-19T02:17:44;6.43;;;4.38;;
61523;SDS011;47393;38.758;-9.164;2022-08-19T02:19:46;15.73;;;4.60;;
61523;SDS011;47393;38.758;-9.164;2022-08-19T02:21:46;9.27;;;4.43;;
61523;SDS011;47393;38.758;-9.164;2022-08-19T02:23:47;9.38;;;3.90;;
61523;SDS011;47393;38.758;-9.164;2022-08-19T02:25:49;14.27;;;4.97;;
61523;SDS011;47393;38.758;-9.164;2022-08-19T02:27:51;10.68;;;4.30;;
61523;SDS011;47393;38.758;-9.164;2022-08-19T02:29:54;10.50;;;4.13;;
61523;SDS011;47393;38.758;-9.164;2022-08-19T02:31:55;11.75;;;4.82;;
61523;SDS011;47393;38.758;-9.164;2022-08-19T02:33:56;11.30;;;4.72;;
61523;SDS011;47393;38.758;-9.164;2022-08-19T02:35:57;9.70;;;4.20;;
61523;SDS011;47393;38.758;-9.164;2022-08-19T02:37:58;6.65;;;4.00;;
61523;SDS011;47393;38.758;-9.164;2022-08-19T02:40:17;12.38;;;4.32;;
61523;SDS011;47393;38.758;-9.164;2022-08-19T02:42:18;9.88;;;4.65;;
61523;SDS011;47393;38.758;-9.164;2022-08-19T02:44:19;14.38;;;5.10;;
61523;SDS011;47393;38.758;-9.164;2022-08-19T02:46:21;8.48;;;4.30;;
61523;SDS011;47393;38.758;-9.164;2022-08-19T02:48:24;15.93;;;5.35;;
61523;SDS011;47393;38.758;-9.164;2022-08-19T02:50:25;19.05;;;5.32;;
61523;SDS011;47393;38.758;-9.164;2022-08-19T02:52:26;13.23;;;5.00;;
61523;SDS011;47393;38.758;-9.164;2022-08-19T02:54:27;11.15;;;4.20;;
61523;SDS011;47393;38.758;-9.164;2022-08-19T02:56:28;10.85;;;4.53;;
61523;SDS011;47393;38.758;-9.164;2022-08-19T02:58:29;14.55;;;4.53;;
61523;SDS011;47393;38.758;-9.164;2022-08-19T03:00:30;9.68;;;4.43;;
61523;SDS011;47393;38.758;-9.164;2022-08-19T03:02:30;11.27;;;5.07;;
61523;SDS011;47393;38.758;-9.164;2022-08-19T03:04:31;10.98;;;4.28;;
61523;SDS011;47393;38.758;-9.164;2022-08-19T03:06:35;7.18;;;4.47;;
61523;SDS011;47393;38.758;-9.164;2022-08-19T03:08:37;10.65;;;4.80;;
61523;SDS011;47393;38.758;-9.164;2022-08-19T03:10:46;15.75;;;6.05;;
61523;SDS011;47393;38.758;-9.164;2022-08-19T03:12:47;10.52;;;5.90;;
61523;SDS011;47393;38.758;-9.164;2022-08-19T03:14:48;14.25;;;4.63;;
61523;SDS011;47393;38.758;-9.164;2022-08-19T03:16:52;9.63;;;5.28;;
61523;SDS011;47393;38.758;-9.164;2022-08-19T03:18:56;9.48;;;5.95;;
61523;SDS011;47393;38.758;-9.164;2022-08-19T03:20:57;11.32;;;5.00;;
61523;SDS011;47393;38.758;-9.164;2022-08-19T03:22:58;8.65;;;4.63;;
61523;SDS011;47393;38.758;-9.164;2022-08-19T03:24:59;12.93;;;5.53;;
61523;SDS011;47393;38.758;-9.164;2022-08-19T03:27:00;9.55;;;5.10;;
61523;SDS011;47393;38.758;-9.164;2022-08-19T03:29:02;10.35;;;5.32;;
61523;SDS011;47393;38.758;-9.164;2022-08-19T03:31:05;12.18;;;5.32;;
61523;SDS011;47393;38.758;-9.164;2022-08-19T03:33:08;13.88;;;5.70;;
61523;SDS011;47393;38.758;-9.164;2022-08-19T03:35:10;8.30;;;5.38;;
61523;SDS011;47393;38.758;-9.164;2022-08-19T03:37:11;14.35;;;5.63;;
61523;SDS011;47393;38.758;-9.164;2022-08-19T03:39:12;13.27;;;5.50;;
61523;SDS011;47393;38.758;-9.164;2022-08-19T03:41:15;11.18;;;4.93;;
61523;SDS011;47393;38.758;-9.164;2022-08-19T03:43:18;9.95;;;4.97;;
61523;SDS011;47393;38.758;-9.164;2022-08-19T03:45:19;10.00;;;5.05;;
61523;SDS011;47393;38.758;-9.164;2022-08-19T03:47:20;7.18;;;4.80;;
61523;SDS011;47393;38.758;-9.164;2022-08-19T03:49:21;11.00;;;4.88;;
61523;SDS011;47393;38.758;-9.164;2022-08-19T03:51:24;8.07;;;5.10;;
61523;SDS011;47393;38.758;-9.164;2022-08-19T03:53:27;15.38;;;5.90;;
61523;SDS011;47393;38.758;-9.164;2022-08-19T03:55:29;14.90;;;5.75;;
61523;SDS011;47393;38.758;-9.164;2022-08-19T03:57:29;16.02;;;5.43;;
61523;SDS011;47393;38.758;-9.164;2022-08-19T03:59:33;13.13;;;5.97;;
61523;SDS011;47393;38.758;-9.164;2022-08-19T04:01:39;14.32;;;5.70;;
61523;SDS011;47393;38.758;-9.164;2022-08-19T04:03:40;11.68;;;5.50;;
61523;SDS011;47393;38.758;-9.164;2022-08-19T04:05:41;11.65;;;5.28;;
61523;SDS011;47393;38.758;-9.164;2022-08-19T04:07:42;18.00;;;5.95;;
61523;SDS011;47393;38.758;-9.164;2022-08-19T04:09:43;19.48;;;6.13;;
61523;SDS011;47393;38.758;-9.164;2022-08-19T04:11:48;22.45;;;7.03;;
61523;SDS011;47393;38.758;-9.164;2022-08-19T04:13:51;11.95;;;4.78;;
61523;SDS011;47393;38.758;-9.164;2022-08-19T04:15:52;17.08;;;5.28;;
61523;SDS011;47393;38.758;-9.164;2022-08-19T04:17:53;8.00;;;4.65;;
61523;SDS011;47393;38.758;-9.164;2022-08-19T04:19:54;14.35;;;3.85;;
61523;SDS011;47393;38.758;-9.164;2022-08-19T04:21:55;15.95;;;4.50;;
61523;SDS011;47393;38.758;-9.164;2022-08-19T04:23:56;11.48;;;3.30;;
61523;SDS011;47393;38.758;-9.164;2022-08-19T04:25:57;6.15;;;3.55;;
61523;SDS011;47393;38.758;-9.164;2022-08-19T04:27:58;4.95;;;3.60;;
61523;SDS011;47393;38.758;-9.164;2022-08-19T04:29:59;9.30;;;3.78;;
61523;SDS011;47393;38.758;-9.164;2022-08-19T04:32:00;12.82;;;3.55;;
61523;SDS011;47393;38.758;-9.164;2022-08-19T04:34:02;8.77;;;3.50;;
61523;SDS011;47393;38.758;-9.164;2022-08-19T04:36:05;7.32;;;3.10;;
61523;SDS011;47393;38.758;-9.164;2022-08-19T04:38:06;5.57;;;3.17;;
61523;SDS011;47393;38.758;-9.164;2022-08-19T04:40:07;14.00;;;3.63;;
61523;SDS011;47393;38.758;-9.164;2022-08-19T04:42:27;6.28;;;2.97;;
61523;SDS011;47393;38.758;-9.164;2022-08-19T04:44:39;11.85;;;3.05;;
61523;SDS011;47393;38.758;-9.164;2022-08-19T04:46:40;10.43;;;3.13;;
61523;SDS011;47393;38.758;-9.164;2022-08-19T04:48:41;7.03;;;3.50;;
61523;SDS011;47393;38.758;-9.164;2022-08-19T04:50:42;6.00;;;3.05;;
61523;SDS011;47393;38.758;-9.164;2022-08-19T04:52:43;7.03;;;2.53;;
61523;SDS011;47393;38.758;-9.164;2022-08-19T04:54:44;6.72;;;3.53;;
61523;SDS011;47393;38.758;-9.164;2022-08-19T04:56:45;8.88;;;3.42;;
61523;SDS011;47393;38.758;-9.164;2022-08-19T04:58:46;18.65;;;3.30;;
61523;SDS011;47393;38.758;-9.164;2022-08-19T05:00:47;7.30;;;2.45;;
61523;SDS011;47393;38.758;-9.164;2022-08-19T05:02:47;4.20;;;2.60;;
61523;SDS011;47393;38.758;-9.164;2022-08-19T05:04:48;3.50;;;2.45;;
61523;SDS011;47393;38.758;-9.164;2022-08-19T05:06:49;4.78;;;2.70;;
61523;SDS011;47393;38.758;-9.164;2022-08-19T05:08:50;12.88;;;2.78;;
61523;SDS011;47393;38.758;-9.164;2022-08-19T05:10:51;7.65;;;2.42;;
61523;SDS011;47393;38.758;-9.164;2022-08-19T05:12:52;6.25;;;2.50;;
61523;SDS011;47393;38.758;-9.164;2022-08-19T05:14:58;6.60;;;2.35;;
61523;SDS011;47393;38.758;-9.164;2022-08-19T05:17:00;5.40;;;2.33;;
61523;SDS011;47393;38.758;-9.164;2022-08-19T05:19:01;2.22;;;1.95;;
61523;SDS011;47393;38.758;-9.164;2022-08-19T05:21:21;9.68;;;2.83;;
61523;SDS011;47393;38.758;-9.164;2022-08-19T05:23:41;7.13;;;2.05;;
61523;SDS011;47393;38.758;-9.164;2022-08-19T05:25:41;4.03;;;2.50;;
61523;SDS011;47393;38.758;-9.164;2022-08-19T05:27:42;7.57;;;2.55;;
61523;SDS011;47393;38.758;-9.164;2022-08-19T05:29:43;12.13;;;2.95;;
61523;SDS011;47393;38.758;-9.164;2022-08-19T05:31:44;5.90;;;2.78;;
61523;SDS011;47393;38.758;-9.164;2022-08-19T05:33:46;4.28;;;2.13;;
61523;SDS011;47393;38.758;-9.164;2022-08-19T05:35:48;4.95;;;1.90;;
61523;SDS011;47393;38.758;-9.164;2022-08-19T05:37:49;3.85;;;2.05;;
61523;SDS011;47393;38.758;-9.164;2022-08-19T05:39:51;2.85;;;2.10;;
61523;SDS011;47393;38.758;-9.164;2022-08-19T05:41:57;6.57;;;2.08;;
61523;SDS011;47393;38.758;-9.164;2022-08-19T05:44:03;8.63;;;2.05;;
61523;SDS011;47393;38.758;-9.164;2022-08-19T05:46:05;2.33;;;1.73;;
61523;SDS011;47393;38.758;-9.164;2022-08-19T05:48:06;6.55;;;2.20;;
61523;SDS011;47393;38.758;-9.164;2022-08-19T05:50:07;4.72;;;2.33;;
61523;SDS011;47393;38.758;-9.164;2022-08-19T05:52:10;4.55;;;2.00;;
61523;SDS011;47393;38.758;-9.164;2022-08-19T05:54:12;3.67;;;1.42;;
61523;SDS011;47393;38.758;-9.164;2022-08-19T05:56:14;3.08;;;1.63;;
61523;SDS011;47393;38.758;-9.164;2022-08-19T05:58:16;6.10;;;1.92;;
61523;SDS011;47393;38.758;-9.164;2022-08-19T06:00:17;14.80;;;2.58;;
61523;SDS011;47393;38.758;-9.164;2022-08-19T06:02:18;2.47;;;1.80;;
61523;SDS011;47393;38.758;-9.164;2022-08-19T06:04:19;2.05;;;1.67;;
61523;SDS011;47393;38.758;-9.164;2022-08-19T06:06:21;7.60;;;2.20;;
61523;SDS011;47393;38.758;-9.164;2022-08-19T06:08:22;9.30;;;1.90;;
61523;SDS011;47393;38.758;-9.164;2022-08-19T06:10:23;2.60;;;1.70;;
61523;SDS011;47393;38.758;-9.164;2022-08-19T06:12:23;4.47;;;1.50;;
61523;SDS011;47393;38.758;-9.164;2022-08-19T06:14:26;7.65;;;1.60;;
61523;SDS011;47393;38.758;-9.164;2022-08-19T06:16:29;2.60;;;1.20;;
61523;SDS011;47393;38.758;-9.164;2022-08-19T06:18:30;3.13;;;1.55;;
61523;SDS011;47393;38.758;-9.164;2022-08-19T06:20:31;4.72;;;1.70;;
61523;SDS011;47393;38.758;-9.164;2022-08-19T06:22:36;3.13;;;1.58;;
61523;SDS011;47393;38.758;-9.164;2022-08-19T06:24:38;5.45;;;1.73;;
61523;SDS011;47393;38.758;-9.164;2022-08-19T06:26:41;7.95;;;1.65;;
61523;SDS011;47393;38.758;-9.164;2022-08-19T06:29:06;6.30;;;1.60;;
61523;SDS011;47393;38.758;-9.164;2022-08-19T06:31:09;23.63;;;2.07;;
61523;SDS011;47393;38.758;-9.164;2022-08-19T06:33:10;3.50;;;1.42;;
61523;SDS011;47393;38.758;-9.164;2022-08-19T06:35:11;3.40;;;1.55;;
61523;SDS011;47393;38.758;-9.164;2022-08-19T06:37:12;4.35;;;1.45;;
61523;SDS011;47393;38.758;-9.164;2022-08-19T06:39:14;18.17;;;3.90;;
61523;SDS011;47393;38.758;-9.164;2022-08-19T06:41:17;7.60;;;2.28;;
61523;SDS011;47393;38.758;-9.164;2022-08-19T06:43:18;18.65;;;2.92;;
61523;SDS011;47393;38.758;-9.164;2022-08-19T06:45:18;15.80;;;1.70;;
61523;SDS011;47393;38.758;-9.164;2022-08-19T06:47:20;5.40;;;1.20;;
61523;SDS011;47393;38.758;-9.164;2022-08-19T06:49:22;12.68;;;2.10;;
61523;SDS011;47393;38.758;-9.164;2022-08-19T06:51:23;11.38;;;2.40;;
61523;SDS011;47393;38.758;-9.164;2022-08-19T06:53:25;37.25;;;4.05;;
61523;SDS011;47393;38.758;-9.164;2022-08-19T06:55:25;21.80;;;3.35;;
61523;SDS011;47393;38.758;-9.164;2022-08-19T06:57:26;26.17;;;2.80;;
61523;SDS011;47393;38.758;-9.164;2022-08-19T06:59:27;6.78;;;2.17;;
61523;SDS011;47393;38.758;-9.164;2022-08-19T07:01:33;5.03;;;1.63;;
61523;SDS011;47393;38.758;-9.164;2022-08-19T07:03:41;8.55;;;2.03;;
61523;SDS011;47393;38.758;-9.164;2022-08-19T07:05:45;7.40;;;1.50;;
61523;SDS011;47393;38.758;-9.164;2022-08-19T07:07:46;6.82;;;1.83;;
61523;SDS011;47393;38.758;-9.164;2022-08-19T07:09:48;24.00;;;1.58;;
61523;SDS011;47393;38.758;-9.164;2022-08-19T07:11:51;8.15;;;1.83;;
61523;SDS011;47393;38.758;-9.164;2022-08-19T07:13:53;13.15;;;1.98;;
61523;SDS011;47393;38.758;-9.164;2022-08-19T07:15:54;14.43;;;1.92;;
61523;SDS011;47393;38.758;-9.164;2022-08-19T07:17:54;3.22;;;2.13;;
61523;SDS011;47393;38.758;-9.164;2022-08-19T07:19:55;12.90;;;2.13;;
61523;SDS011;47393;38.758;-9.164;2022-08-19T07:21:56;6.40;;;2.03;;
61523;SDS011;47393;38.758;-9.164;2022-08-19T07:23:58;10.65;;;1.77;;
61523;SDS011;47393;38.758;-9.164;2022-08-19T07:26:17;10.38;;;1.75;;
61523;SDS011;47393;38.758;-9.164;2022-08-19T07:28:19;7.95;;;1.80;;
61523;SDS011;47393;38.758;-9.164;2022-08-19T07:30:20;6.35;;;1.95;;
61523;SDS011;47393;38.758;-9.164;2022-08-19T07:32:21;7.88;;;1.77;;
61523;SDS011;47393;38.758;-9.164;2022-08-19T07:34:23;16.65;;;1.83;;
61523;SDS011;47393;38.758;-9.164;2022-08-19T07:36:28;4.85;;;1.55;;
61523;SDS011;47393;38.758;-9.164;2022-08-19T07:38:29;9.15;;;1.85;;
61523;SDS011;47393;38.758;-9.164;2022-08-19T07:40:30;2.88;;;1.30;;
61523;SDS011;47393;38.758;-9.164;2022-08-19T07:42:31;8.70;;;1.65;;
61523;SDS011;47393;38.758;-9.164;2022-08-19T07:44:41;8.63;;;1.60;;
61523;SDS011;47393;38.758;-9.164;2022-08-19T07:46:44;4.57;;;1.10;;
61523;SDS011;47393;38.758;-9.164;2022-08-19T07:48:47;9.82;;;1.77;;
61523;SDS011;47393;38.758;-9.164;2022-08-19T07:50:49;8.83;;;1.57;;
61523;SDS011;47393;38.758;-9.164;2022-08-19T07:52:50;6.15;;;1.35;;
61523;SDS011;47393;38.758;-9.164;2022-08-19T07:54:51;10.77;;;1.52;;
61523;SDS011;47393;38.758;-9.164;2022-08-19T07:56:52;4.35;;;1.42;;
61523;SDS011;47393;38.758;-9.164;2022-08-19T07:58:53;5.50;;;1.40;;
61523;SDS011;47393;38.758;-9.164;2022-08-19T08:01:06;8.32;;;1.77;;
61523;SDS011;47393;38.758;-9.164;2022-08-19T08:03:09;9.63;;;1.73;;
61523;SDS011;47393;38.758;-9.164;2022-08-19T08:05:10;4.28;;;1.40;;
61523;SDS011;47393;38.758;-9.164;2022-08-19T08:07:30;9.10;;;2.00;;
61523;SDS011;47393;38.758;-9.164;2022-08-19T08:09:51;5.15;;;1.55;;
61523;SDS011;47393;38.758;-9.164;2022-08-19T08:14:24;23.52;;;1.65;;
61523;SDS011;47393;38.758;-9.164;2022-08-19T08:16:28;1.67;;;0.95;;
61523;SDS011;47393;38.758;-9.164;2022-08-19T08:18:29;1.23;;;1.23;;
61523;SDS011;47393;38.758;-9.164;2022-08-19T08:20:30;6.32;;;1.55;;
61523;SDS011;47393;38.758;-9.164;2022-08-19T08:22:31;7.45;;;1.60;;
61523;SDS011;47393;38.758;-9.164;2022-08-19T08:24:50;27.17;;;1.90;;
61523;SDS011;47393;38.758;-9.164;2022-08-19T08:26:51;2.42;;;1.17;;
61523;SDS011;47393;38.758;-9.164;2022-08-19T08:28:53;3.85;;;1.38;;
61523;SDS011;47393;38.758;-9.164;2022-08-19T08:30:57;5.03;;;1.30;;
61523;SDS011;47393;38.758;-9.164;2022-08-19T08:33:01;8.45;;;1.60;;
61523;SDS011;47393;38.758;-9.164;2022-08-19T08:37:10;15.32;;;1.77;;
61523;SDS011;47393;38.758;-9.164;2022-08-19T08:43:28;4.45;;;1.23;;
61523;SDS011;47393;38.758;-9.164;2022-08-19T08:45:34;4.25;;;1.05;;
61523;SDS011;47393;38.758;-9.164;2022-08-19T08:47:43;12.40;;;1.40;;
61523;SDS011;47393;38.758;-9.164;2022-08-19T08:49:52;6.18;;;0.98;;
61523;SDS011;47393;38.758;-9.164;2022-08-19T08:52:08;4.95;;;1.00;;
61523;SDS011;47393;38.758;-9.164;2022-08-19T08:54:41;9.27;;;1.17;;
61523;SDS011;47393;38.758;-9.164;2022-08-19T08:56:44;2.38;;;1.10;;
61523;SDS011;47393;38.758;-9.164;2022-08-19T09:00:54;9.45;;;0.80;;
61523;SDS011;47393;38.758;-9.164;2022-08-19T09:02:56;6.25;;;0.80;;
61523;SDS011;47393;38.758;-9.164;2022-08-19T09:04:57;3.08;;;0.90;;
61523;SDS011;47393;38.758;-9.164;2022-08-19T09:11:47;7.63;;;1.52;;
61523;SDS011;47393;38.758;-9.164;2022-08-19T09:14:08;7.68;;;1.30;;
61523;SDS011;47393;38.758;-9.164;2022-08-19T09:16:32;5.65;;;1.27;;
61523;SDS011;47393;38.758;-9.164;2022-08-19T09:18:40;2.20;;;0.98;;
61523;SDS011;47393;38.758;-9.164;2022-08-19T09:20:43;3.97;;;1.30;;
61523;SDS011;47393;38.758;-9.164;2022-08-19T09:22:45;4.47;;;1.10;;
61523;SDS011;47393;38.758;-9.164;2022-08-19T09:24:46;3.53;;;1.08;;
61523;SDS011;47393;38.758;-9.164;2022-08-19T09:26:47;6.55;;;1.27;;
61523;SDS011;47393;38.758;-9.164;2022-08-19T09:28:49;11.75;;;1.60;;
61523;SDS011;47393;38.758;-9.164;2022-08-19T09:30:51;4.38;;;1.23;;
61523;SDS011;47393;38.758;-9.164;2022-08-19T09:32:52;10.40;;;1.23;;
61523;SDS011;47393;38.758;-9.164;2022-08-19T09:34:54;10.68;;;1.30;;
61523;SDS011;47393;38.758;-9.164;2022-08-19T09:36:55;13.45;;;1.27;;
61523;SDS011;47393;38.758;-9.164;2022-08-19T09:38:55;7.50;;;1.40;;
61523;SDS011;47393;38.758;-9.164;2022-08-19T09:40:56;11.50;;;1.60;;
61523;SDS011;47393;38.758;-9.164;2022-08-19T09:43:05;5.18;;;1.27;;
61523;SDS011;47393;38.758;-9.164;2022-08-19T09:45:06;4.57;;;1.35;;
61523;SDS011;47393;38.758;-9.164;2022-08-19T09:47:08;11.13;;;1.20;;
61523;SDS011;47393;38.758;-9.164;2022-08-19T09:49:15;11.60;;;1.55;;
61523;SDS011;47393;38.758;-9.164;2022-08-19T09:51:22;6.07;;;1.35;;
61523;SDS011;47393;38.758;-9.164;2022-08-19T09:53:24;4.07;;;1.38;;
61523;SDS011;47393;38.758;-9.164;2022-08-19T09:55:34;7.60;;;2.17;;
61523;SDS011;47393;38.758;-9.164;2022-08-19T09:57:42;8.07;;;1.60;;
61523;SDS011;47393;38.758;-9.164;2022-08-19T09:59:43;16.38;;;1.98;;
61523;SDS011;47393;38.758;-9.164;2022-08-19T10:01:43;5.43;;;1.65;;
61523;SDS011;47393;38.758;-9.164;2022-08-19T10:03:46;13.93;;;1.45;;
61523;SDS011;47393;38.758;-9.164;2022-08-19T10:05:49;3.70;;;1.10;;
61523;SDS011;47393;38.758;-9.164;2022-08-19T10:07:50;15.02;;;2.00;;
61523;SDS011;47393;38.758;-9.164;2022-08-19T10:09:50;12.10;;;1.48;;
61523;SDS011;47393;38.758;-9.164;2022-08-19T10:11:51;8.27;;;2.08;;
61523;SDS011;47393;38.758;-9.164;2022-08-19T10:13:52;6.85;;;1.20;;
61523;SDS011;47393;38.758;-9.164;2022-08-19T10:16:05;5.68;;;1.30;;
61523;SDS011;47393;38.758;-9.164;2022-08-19T10:18:11;9.90;;;1.25;;
61523;SDS011;47393;38.758;-9.164;2022-08-19T10:20:11;7.80;;;1.48;;
61523;SDS011;47393;38.758;-9.164;2022-08-19T10:22:12;11.00;;;1.50;;
61523;SDS011;47393;38.758;-9.164;2022-08-19T10:24:13;4.93;;;1.77;;
61523;SDS011;47393;38.758;-9.164;2022-08-19T10:26:15;5.93;;;1.50;;
61523;SDS011;47393;38.758;-9.164;2022-08-19T10:28:20;11.95;;;1.80;;
61523;SDS011;47393;38.758;-9.164;2022-08-19T10:30:21;12.27;;;1.73;;
61523;SDS011;47393;38.758;-9.164;2022-08-19T10:32:22;5.05;;;1.77;;
61523;SDS011;47393;38.758;-9.164;2022-08-19T10:34:22;5.80;;;1.40;;
61523;SDS011;47393;38.758;-9.164;2022-08-19T10:36:24;7.25;;;1.65;;
61523;SDS011;47393;38.758;-9.164;2022-08-19T10:38:30;1.88;;;1.20;;
61523;SDS011;47393;38.758;-9.164;2022-08-19T10:40:31;33.95;;;3.13;;
61523;SDS011;47393;38.758;-9.164;2022-08-19T10:42:32;5.22;;;1.42;;
61523;SDS011;47393;38.758;-9.164;2022-08-19T10:44:33;6.88;;;1.77;;
61523;SDS011;47393;38.758;-9.164;2022-08-19T10:46:38;9.82;;;1.50;;
61523;SDS011;47393;38.758;-9.164;2022-08-19T10:48:43;4.85;;;1.48;;
61523;SDS011;47393;38.758;-9.164;2022-08-19T10:50:47;9.90;;;1.67;;
61523;SDS011;47393;38.758;-9.164;2022-08-19T10:53:07;8.65;;;1.50;;
61523;SDS011;47393;38.758;-9.164;2022-08-19T10:55:08;10.35;;;1.48;;
61523;SDS011;47393;38.758;-9.164;2022-08-19T10:57:30;6.80;;;1.40;;
61523;SDS011;47393;38.758;-9.164;2022-08-19T10:59:31;3.65;;;1.30;;
61523;SDS011;47393;38.758;-9.164;2022-08-19T11:01:33;9.50;;;1.83;;
61523;SDS011;47393;38.758;-9.164;2022-08-19T11:03:36;6.35;;;1.48;;
61523;SDS011;47393;38.758;-9.164;2022-08-19T11:05:37;15.80;;;1.60;;
61523;SDS011;47393;38.758;-9.164;2022-08-19T11:07:38;11.98;;;1.60;;
61523;SDS011;47393;38.758;-9.164;2022-08-19T11:09:41;8.27;;;1.65;;
61523;SDS011;47393;38.758;-9.164;2022-08-19T11:11:45;5.93;;;1.48;;
61523;SDS011;47393;38.758;-9.164;2022-08-19T11:13:46;14.68;;;2.80;;
61523;SDS011;47393;38.758;-9.164;2022-08-19T11:15:59;12.30;;;1.80;;
61523;SDS011;47393;38.758;-9.164;2022-08-19T11:18:04;5.93;;;1.42;;
61523;SDS011;47393;38.758;-9.164;2022-08-19T11:20:12;8.95;;;1.90;;
61523;SDS011;47393;38.758;-9.164;2022-08-19T11:24:16;5.60;;;1.40;;
61523;SDS011;47393;38.758;-9.164;2022-08-19T11:26:22;3.38;;;1.15;;
61523;SDS011;47393;38.758;-9.164;2022-08-19T11:28:24;2.45;;;1.30;;
61523;SDS011;47393;38.758;-9.164;2022-08-19T11:30:25;10.20;;;1.50;;
61523;SDS011;47393;38.758;-9.164;2022-08-19T11:32:29;11.23;;;1.52;;
61523;SDS011;47393;38.758;-9.164;2022-08-19T11:34:29;9.40;;;1.50;;
61523;SDS011;47393;38.758;-9.164;2022-08-19T11:36:30;9.60;;;1.60;;
61523;SDS011;47393;38.758;-9.164;2022-08-19T11:38:35;4.70;;;1.17;;
61523;SDS011;47393;38.758;-9.164;2022-08-19T11:40:36;4.72;;;1.50;;
61523;SDS011;47393;38.758;-9.164;2022-08-19T11:42:37;11.38;;;1.48;;
61523;SDS011;47393;38.758;-9.164;2022-08-19T11:44:56;11.57;;;1.50;;
61523;SDS011;47393;38.758;-9.164;2022-08-19T11:46:57;10.00;;;1.70;;
61523;SDS011;47393;38.758;-9.164;2022-08-19T11:48:58;4.60;;;1.48;;
61523;SDS011;47393;38.758;-9.164;2022-08-19T11:51:03;13.40;;;1.30;;
61523;SDS011;47393;38.758;-9.164;2022-08-19T11:53:08;10.68;;;1.58;;
61523;SDS011;47393;38.758;-9.164;2022-08-19T11:55:09;3.55;;;1.20;;
61523;SDS011;47393;38.758;-9.164;2022-08-19T11:57:11;5.57;;;1.20;;
61523;SDS011;47393;38.758;-9.164;2022-08-19T11:59:12;8.82;;;1.30;;
61523;SDS011;47393;38.758;-9.164;2022-08-19T12:01:19;5.10;;;1.25;;
61523;SDS011;47393;38.758;-9.164;2022-08-19T12:03:27;3.78;;;1.00;;
61523;SDS011;47393;38.758;-9.164;2022-08-19T12:05:28;7.75;;;1.17;;
61523;SDS011;47393;38.758;-9.164;2022-08-19T12:07:28;11.27;;;1.52;;
61523;SDS011;47393;38.758;-9.164;2022-08-19T12:09:30;7.70;;;1.45;;
61523;SDS011;47393;38.758;-9.164;2022-08-19T12:11:33;2.30;;;1.40;;
61523;SDS011;47393;38.758;-9.164;2022-08-19T12:13:34;5.95;;;1.05;;
61523;SDS011;47393;38.758;-9.164;2022-08-19T12:15:37;3.88;;;1.27;;
61523;SDS011;47393;38.758;-9.164;2022-08-19T12:17:40;7.72;;;1.42;;
61523;SDS011;47393;38.758;-9.164;2022-08-19T12:19:42;6.27;;;1.13;;
61523;SDS011;47393;38.758;-9.164;2022-08-19T12:21:42;8.93;;;1.17;;
61523;SDS011;47393;38.758;-9.164;2022-08-19T12:23:43;5.85;;;1.23;;
61523;SDS011;47393;38.758;-9.164;2022-08-19T12:25:45;2.80;;;1.10;;